sensor_id;sensor_type;location;lat;lon;timestamp;pressure;altitude;pressure_sealevel;temperature;humidity
45763;BME280;37512;52.408;13.356;2023-06-01T00:00:56;101317.53;;;16.26;82.01
45763;BME280;37512;52.408;13.356;2023-06-01T00:05:00;101318.34;;;16.27;81.59
45763;BME280;37512;52.408;13.356;2023-06-01T00:09:17;101319.63;;;16.40;81.72
45763;BME280;37512;52.408;13.356;2023-06-01T00:13:18;101321.97;;;16.35;81.75
45763;BME280;37512;52.408;13.356;2023-06-01T00:17:20;101320.34;;;16.26;82.52
45763;BME280;37512;52.408;13.356;2023-06-01T00:21:24;101324.06;;;16.45;82.15
45763;BME280;37512;52.408;13.356;2023-06-01T00:25:26;101318.34;;;16.27;84.26
45763;BME280;37512;52.408;13.356;2023-06-01T00:29:28;101312.66;;;16.16;84.72
45763;BME280;37512;52.408;13.356;2023-06-01T00:33:30;101321.38;;;16.07;84.96
45763;BME280;37512;52.408;13.356;2023-06-01T00:37:32;101317.25;;;15.94;85.78
45763;BME280;37512;52.408;13.356;2023-06-01T00:41:34;101316.13;;;15.99;86.50
45763;BME280;37512;52.408;13.356;2023-06-01T00:45:36;101316.03;;;15.88;88.12
45763;BME280;37512;52.408;13.356;2023-06-01T00:49:40;101313.19;;;15.81;87.80
45763;BME280;37512;52.408;13.356;2023-06-01T00:53:42;101310.31;;;15.74;89.17
45763;BME280;37512;52.408;13.356;2023-06-01T00:57:44;101310.69;;;15.72;90.03
45763;BME280;37512;52.408;13.356;2023-06-01T01:01:45;101310.63;;;15.68;90.95
45763;BME280;37512;52.408;13.356;2023-06-01T01:05:47;101308.38;;;15.44;93.29
45763;BME280;37512;52.408;13.356;2023-06-01T01:10:16;101309.81;;;15.27;95.89
45763;BME280;37512;52.408;13.356;2023-06-01T01:14:30;101307.03;;;15.27;96.47
45763;BME280;37512;52.408;13.356;2023-06-01T01:23:20;101305.03;;;15.27;98.25
45763;BME280;37512;52.408;13.356;2023-06-01T01:27:39;101303.88;;;14.95;100.00
45763;BME280;37512;52.408;13.356;2023-06-01T01:31:46;101299.72;;;15.15;100.00
45763;BME280;37512;52.408;13.356;2023-06-01T01:35:51;101304.28;;;15.31;100.00
45763;BME280;37512;52.408;13.356;2023-06-01T01:39:53;101302.53;;;15.19;100.00
45763;BME280;37512;52.408;13.356;2023-06-01T01:43:55;101304.44;;;15.11;100.00
45763;BME280;37512;52.408;13.356;2023-06-01T01:48:16;101297.75;;;14.85;100.00
45763;BME280;37512;52.408;13.356;2023-06-01T01:52:26;101291.47;;;14.96;100.00
45763;BME280;37512;52.408;13.356;2023-06-01T01:56:31;101291.66;;;14.76;100.00
45763;BME280;37512;52.408;13.356;2023-06-01T02:00:33;101292.13;;;14.82;100.00
45763;BME280;37512;52.408;13.356;2023-06-01T02:04:43;101289.22;;;14.71;100.00
45763;BME280;37512;52.408;13.356;2023-06-01T02:08:45;101281.19;;;14.70;100.00
45763;BME280;37512;52.408;13.356;2023-06-01T02:12:47;101287.50;;;14.36;100.00
45763;BME280;37512;52.408;13.356;2023-06-01T02:16:48;101285.56;;;14.40;100.00
45763;BME280;37512;52.408;13.356;2023-06-01T02:20:50;101292.09;;;14.25;100.00
45763;BME280;37512;52.408;13.356;2023-06-01T02:24:52;101280.75;;;14.37;100.00
45763;BME280;37512;52.408;13.356;2023-06-01T02:28:53;101280.78;;;14.41;100.00
45763;BME280;37512;52.408;13.356;2023-06-01T02:32:55;101286.53;;;14.25;100.00
45763;BME280;37512;52.408;13.356;2023-06-01T02:36:56;101287.91;;;13.85;100.00
45763;BME280;37512;52.408;13.356;2023-06-01T02:40:58;101287.59;;;13.90;100.00
45763;BME280;37512;52.408;13.356;2023-06-01T02:45:00;101282.81;;;13.91;100.00
45763;BME280;37512;52.408;13.356;2023-06-01T02:49:02;101280.47;;;13.70;100.00
45763;BME280;37512;52.408;13.356;2023-06-01T02:53:05;101286.03;;;13.66;100.00
45763;BME280;37512;52.408;13.356;2023-06-01T02:57:07;101288.72;;;13.63;100.00
45763;BME280;37512;52.408;13.356;2023-06-01T03:01:09;101276.47;;;13.67;100.00
45763;BME280;37512;52.408;13.356;2023-06-01T03:05:14;101283.47;;;13.57;100.00
45763;BME280;37512;52.408;13.356;2023-06-01T03:09:16;101270.69;;;13.56;100.00
45763;BME280;37512;52.408;13.356;2023-06-01T03:13:18;101284.25;;;13.15;100.00
45763;BME280;37512;52.408;13.356;2023-06-01T03:17:20;101286.03;;;13.04;100.00
45763;BME280;37512;52.408;13.356;2023-06-01T03:21:21;101284.56;;;13.10;100.00
45763;BME280;37512;52.408;13.356;2023-06-01T03:25:23;101288.53;;;13.29;100.00
45763;BME280;37512;52.408;13.356;2023-06-01T03:29:26;101295.03;;;12.97;100.00
45763;BME280;37512;52.408;13.356;2023-06-01T03:33:28;101296.16;;;13.12;100.00
45763;BME280;37512;52.408;13.356;2023-06-01T03:37:29;101291.16;;;13.02;100.00
45763;BME280;37512;52.408;13.356;2023-06-01T03:41:31;101290.22;;;12.75;100.00
45763;BME280;37512;52.408;13.356;2023-06-01T03:45:33;101295.13;;;13.01;100.00
45763;BME280;37512;52.408;13.356;2023-06-01T03:49:34;101295.28;;;12.69;100.00
45763;BME280;37512;52.408;13.356;2023-06-01T03:53:36;101293.09;;;12.59;100.00
45763;BME280;37512;52.408;13.356;2023-06-01T03:57:38;101294.97;;;12.20;100.00
45763;BME280;37512;52.408;13.356;2023-06-01T04:01:40;101289.81;;;12.38;100.00
45763;BME280;37512;52.408;13.356;2023-06-01T04:05:44;101285.47;;;12.21;100.00
45763;BME280;37512;52.408;13.356;2023-06-01T04:09:51;101285.94;;;12.07;100.00
45763;BME280;37512;52.408;13.356;2023-06-01T04:13:53;101284.81;;;12.27;100.00
45763;BME280;37512;52.408;13.356;2023-06-01T04:17:54;101287.38;;;12.01;100.00
45763;BME280;37512;52.408;13.356;2023-06-01T04:21:56;101283.41;;;12.02;100.00
45763;BME280;37512;52.408;13.356;2023-06-01T04:25:58;101284.97;;;12.34;100.00
45763;BME280;37512;52.408;13.356;2023-06-01T04:30:01;101287.63;;;12.11;100.00
45763;BME280;37512;52.408;13.356;2023-06-01T04:34:02;101283.22;;;12.10;100.00
45763;BME280;37512;52.408;13.356;2023-06-01T04:38:04;101290.31;;;12.08;100.00
45763;BME280;37512;52.408;13.356;2023-06-01T04:42:05;101309.63;;;12.17;100.00
45763;BME280;37512;52.408;13.356;2023-06-01T04:46:08;101305.28;;;12.19;100.00
45763;BME280;37512;52.408;13.356;2023-06-01T04:50:11;101310.44;;;12.01;100.00
45763;BME280;37512;52.408;13.356;2023-06-01T04:54:12;101314.44;;;11.72;100.00
45763;BME280;37512;52.408;13.356;2023-06-01T04:58:15;101302.63;;;11.59;100.00
45763;BME280;37512;52.408;13.356;2023-06-01T05:02:17;101302.97;;;11.58;100.00
45763;BME280;37512;52.408;13.356;2023-06-01T05:06:19;101307.34;;;11.43;100.00
45763;BME280;37512;52.408;13.356;2023-06-01T05:10:22;101302.97;;;11.58;100.00
45763;BME280;37512;52.408;13.356;2023-06-01T05:14:23;101293.81;;;11.57;100.00
45763;BME280;37512;52.408;13.356;2023-06-01T05:18:25;101304.66;;;11.78;100.00
45763;BME280;37512;52.408;13.356;2023-06-01T05:22:27;101300.34;;;11.65;100.00
45763;BME280;37512;52.408;13.356;2023-06-01T05:26:28;101296.97;;;11.71;100.00
45763;BME280;37512;52.408;13.356;2023-06-01T05:34:39;101297.16;;;11.95;100.00
45763;BME280;37512;52.408;13.356;2023-06-01T05:38:40;101300.81;;;11.83;100.00
45763;BME280;37512;52.408;13.356;2023-06-01T05:42:42;101312.31;;;12.13;100.00
45763;BME280;37512;52.408;13.356;2023-06-01T05:46:43;101307.69;;;11.41;100.00
45763;BME280;37512;52.408;13.356;2023-06-01T05:50:45;101317.47;;;11.95;100.00
45763;BME280;37512;52.408;13.356;2023-06-01T05:54:47;101316.41;;;11.71;100.00
45763;BME280;37512;52.408;13.356;2023-06-01T05:59:02;101319.88;;;11.37;100.00
45763;BME280;37512;52.408;13.356;2023-06-01T06:03:07;101315.47;;;11.96;100.00
45763;BME280;37512;52.408;13.356;2023-06-01T06:07:09;101303.69;;;11.70;100.00
45763;BME280;37512;52.408;13.356;2023-06-01T06:11:11;101307.44;;;11.46;100.00
45763;BME280;37512;52.408;13.356;2023-06-01T06:15:13;101305.66;;;12.02;100.00
45763;BME280;37512;52.408;13.356;2023-06-01T06:19:15;101306.81;;;12.17;100.00
45763;BME280;37512;52.408;13.356;2023-06-01T06:23:17;101306.97;;;12.40;100.00
45763;BME280;37512;52.408;13.356;2023-06-01T06:27:19;101308.44;;;11.86;100.00
45763;BME280;37512;52.408;13.356;2023-06-01T06:31:22;101303.88;;;12.45;100.00
45763;BME280;37512;52.408;13.356;2023-06-01T06:35:28;101301.13;;;12.84;100.00
45763;BME280;37512;52.408;13.356;2023-06-01T06:39:30;101296.47;;;13.07;100.00
45763;BME280;37512;52.408;13.356;2023-06-01T06:43:32;101299.66;;;13.48;100.00
45763;BME280;37512;52.408;13.356;2023-06-01T06:47:34;101299.34;;;13.53;100.00
45763;BME280;37512;52.408;13.356;2023-06-01T06:51:37;101299.53;;;13.41;100.00
45763;BME280;37512;52.408;13.356;2023-06-01T06:55:40;101309.78;;;13.17;100.00
45763;BME280;37512;52.408;13.356;2023-06-01T06:59:44;101310.19;;;12.61;100.00
45763;BME280;37512;52.408;13.356;2023-06-01T07:03:46;101309.22;;;12.89;100.00
45763;BME280;37512;52.408;13.356;2023-06-01T07:07:48;101303.25;;;12.90;100.00
45763;BME280;37512;52.408;13.356;2023-06-01T07:11:50;101304.41;;;13.48;100.00
45763;BME280;37512;52.408;13.356;2023-06-01T07:15:53;101296.47;;;13.73;100.00
45763;BME280;37512;52.408;13.356;2023-06-01T07:19:54;101301.38;;;13.79;100.00
45763;BME280;37512;52.408;13.356;2023-06-01T07:23:56;101296.53;;;12.91;100.00
45763;BME280;37512;52.408;13.356;2023-06-01T07:27:58;101297.00;;;13.82;100.00
45763;BME280;37512;52.408;13.356;2023-06-01T07:32:01;101294.53;;;13.77;100.00
45763;BME280;37512;52.408;13.356;2023-06-01T07:36:05;101293.53;;;14.12;100.00
45763;BME280;37512;52.408;13.356;2023-06-01T07:40:08;101289.78;;;13.54;100.00
45763;BME280;37512;52.408;13.356;2023-06-01T07:44:10;101289.66;;;13.70;100.00
45763;BME280;37512;52.408;13.356;2023-06-01T07:48:12;101296.63;;;13.18;100.00
45763;BME280;37512;52.408;13.356;2023-06-01T07:52:13;101294.22;;;13.36;100.00
45763;BME280;37512;52.408;13.356;2023-06-01T07:56:15;101290.47;;;13.71;100.00
45763;BME280;37512;52.408;13.356;2023-06-01T08:00:17;101280.44;;;13.24;100.00
45763;BME280;37512;52.408;13.356;2023-06-01T08:04:19;101292.84;;;13.07;100.00
45763;BME280;37512;52.408;13.356;2023-06-01T08:08:22;101286.94;;;13.74;100.00
45763;BME280;37512;52.408;13.356;2023-06-01T08:12:24;101290.28;;;13.37;100.00
45763;BME280;37512;52.408;13.356;2023-06-01T08:16:27;101290.34;;;14.13;100.00
45763;BME280;37512;52.408;13.356;2023-06-01T08:20:29;101285.47;;;14.60;100.00
45763;BME280;37512;52.408;13.356;2023-06-01T08:24:31;101277.31;;;14.21;100.00
45763;BME280;37512;52.408;13.356;2023-06-01T08:28:33;101277.41;;;14.28;100.00
45763;BME280;37512;52.408;13.356;2023-06-01T08:32:35;101281.72;;;14.22;100.00
45763;BME280;37512;52.408;13.356;2023-06-01T08:36:37;101268.09;;;15.11;100.00
45763;BME280;37512;52.408;13.356;2023-06-01T08:40:39;101257.28;;;15.47;97.58
45763;BME280;37512;52.408;13.356;2023-06-01T08:44:42;101258.03;;;15.03;100.00
45763;BME280;37512;52.408;13.356;2023-06-01T08:48:44;101250.84;;;15.43;96.03
45763;BME280;37512;52.408;13.356;2023-06-01T08:52:46;101259.00;;;15.18;96.27
45763;BME280;37512;52.408;13.356;2023-06-01T08:56:49;101257.69;;;15.08;93.83
45763;BME280;37512;52.408;13.356;2023-06-01T09:00:51;101254.69;;;15.27;96.10
45763;BME280;37512;52.408;13.356;2023-06-01T09:04:55;101244.84;;;15.41;96.89
45763;BME280;37512;52.408;13.356;2023-06-01T09:08:57;101251.50;;;16.22;94.24
45763;BME280;37512;52.408;13.356;2023-06-01T09:12:59;101240.94;;;16.01;91.24
45763;BME280;37512;52.408;13.356;2023-06-01T09:17:03;101241.44;;;16.98;84.65
45763;BME280;37512;52.408;13.356;2023-06-01T09:21:10;101236.63;;;16.98;83.78
45763;BME280;37512;52.408;13.356;2023-06-01T09:25:14;101235.78;;;16.87;84.79
45763;BME280;37512;52.408;13.356;2023-06-01T09:29:16;101238.28;;;17.24;84.10
45763;BME280;37512;52.408;13.356;2023-06-01T09:33:18;101226.69;;;17.87;80.38
45763;BME280;37512;52.408;13.356;2023-06-01T09:37:21;101213.44;;;18.09;77.54
45763;BME280;37512;52.408;13.356;2023-06-01T09:41:23;101206.91;;;18.37;72.71
45763;BME280;37512;52.408;13.356;2023-06-01T09:45:26;101212.34;;;18.91;71.08
45763;BME280;37512;52.408;13.356;2023-06-01T09:49:38;101211.53;;;18.87;67.50
45763;BME280;37512;52.408;13.356;2023-06-01T09:53:41;101223.31;;;18.49;71.68
45763;BME280;37512;52.408;13.356;2023-06-01T09:57:43;101213.28;;;18.52;74.02
45763;BME280;37512;52.408;13.356;2023-06-01T10:01:51;101212.78;;;18.75;68.05
45763;BME280;37512;52.408;13.356;2023-06-01T10:05:54;101204.25;;;19.00;67.37
45763;BME280;37512;52.408;13.356;2023-06-01T10:09:58;101186.03;;;18.45;69.78
45763;BME280;37512;52.408;13.356;2023-06-01T10:14:01;101191.91;;;19.35;67.86
45763;BME280;37512;52.408;13.356;2023-06-01T10:18:05;101186.13;;;19.53;62.64
45763;BME280;37512;52.408;13.356;2023-06-01T10:22:07;101184.50;;;19.56;66.65
45763;BME280;37512;52.408;13.356;2023-06-01T10:26:12;101188.28;;;18.72;67.87
45763;BME280;37512;52.408;13.356;2023-06-01T10:30:16;101179.28;;;19.06;66.57
45763;BME280;37512;52.408;13.356;2023-06-01T10:34:43;101175.28;;;19.97;60.00
45763;BME280;37512;52.408;13.356;2023-06-01T10:38:46;101181.09;;;20.51;58.96
45763;BME280;37512;52.408;13.356;2023-06-01T10:42:48;101181.63;;;21.00;57.53
45763;BME280;37512;52.408;13.356;2023-06-01T10:46:49;101177.22;;;20.72;56.45
45763;BME280;37512;52.408;13.356;2023-06-01T10:51:21;101180.25;;;21.12;55.15
45763;BME280;37512;52.408;13.356;2023-06-01T10:55:25;101174.00;;;21.51;51.75
45763;BME280;37512;52.408;13.356;2023-06-01T10:59:27;101166.06;;;21.43;52.55
45763;BME280;37512;52.408;13.356;2023-06-01T11:03:43;101168.91;;;20.88;53.58
45763;BME280;37512;52.408;13.356;2023-06-01T11:07:46;101158.41;;;21.67;51.89
45763;BME280;37512;52.408;13.356;2023-06-01T11:20:20;101150.94;;;21.77;48.68
45763;BME280;37512;52.408;13.356;2023-06-01T11:24:51;101146.28;;;21.66;52.08
45763;BME280;37512;52.408;13.356;2023-06-01T11:29:04;101134.91;;;22.70;47.57
45763;BME280;37512;52.408;13.356;2023-06-01T11:33:06;101132.16;;;22.66;49.02
45763;BME280;37512;52.408;13.356;2023-06-01T11:37:19;101128.31;;;22.40;48.10
45763;BME280;37512;52.408;13.356;2023-06-01T11:41:22;101129.91;;;22.94;47.21
45763;BME280;37512;52.408;13.356;2023-06-01T11:45:28;101132.16;;;22.30;48.02
45763;BME280;37512;52.408;13.356;2023-06-01T11:49:30;101122.31;;;23.56;45.80
45763;BME280;37512;52.408;13.356;2023-06-01T11:53:31;101124.94;;;22.98;44.27
45763;BME280;37512;52.408;13.356;2023-06-01T11:57:33;101119.78;;;22.24;44.56
45763;BME280;37512;52.408;13.356;2023-06-01T12:01:35;101118.78;;;22.50;44.50
45763;BME280;37512;52.408;13.356;2023-06-01T12:05:40;101129.75;;;23.34;44.64
45763;BME280;37512;52.408;13.356;2023-06-01T12:09:46;101117.72;;;23.92;41.83
45763;BME280;37512;52.408;13.356;2023-06-01T12:13:49;101110.22;;;22.54;44.05
45763;BME280;37512;52.408;13.356;2023-06-01T12:17:53;101109.31;;;23.10;44.11
45763;BME280;37512;52.408;13.356;2023-06-01T12:22:00;101104.56;;;23.07;43.20
45763;BME280;37512;52.408;13.356;2023-06-01T12:26:02;101094.81;;;23.86;43.86
45763;BME280;37512;52.408;13.356;2023-06-01T12:30:19;101093.41;;;23.62;41.99
45763;BME280;37512;52.408;13.356;2023-06-01T12:34:21;101088.16;;;24.06;42.09
45763;BME280;37512;52.408;13.356;2023-06-01T12:38:23;101084.94;;;24.97;40.20
45763;BME280;37512;52.408;13.356;2023-06-01T12:46:39;101093.81;;;24.86;40.24
45763;BME280;37512;52.408;13.356;2023-06-01T12:50:44;101079.19;;;24.75;39.13
45763;BME280;37512;52.408;13.356;2023-06-01T12:54:46;101083.53;;;22.55;42.34
45763;BME280;37512;52.408;13.356;2023-06-01T12:58:51;101077.34;;;22.04;45.44
45763;BME280;37512;52.408;13.356;2023-06-01T13:02:53;101086.56;;;22.97;42.45
45763;BME280;37512;52.408;13.356;2023-06-01T13:06:56;101076.69;;;22.16;43.69
45763;BME280;37512;52.408;13.356;2023-06-01T13:11:29;101081.81;;;23.10;42.09
45763;BME280;37512;52.408;13.356;2023-06-01T13:15:31;101077.22;;;23.16;40.98
45763;BME280;37512;52.408;13.356;2023-06-01T13:19:33;101084.81;;;24.36;40.13
45763;BME280;37512;52.408;13.356;2023-06-01T13:23:35;101078.16;;;23.43;41.23
45763;BME280;37512;52.408;13.356;2023-06-01T13:27:37;101069.84;;;22.86;43.24
45763;BME280;37512;52.408;13.356;2023-06-01T13:31:38;101062.59;;;23.34;40.28
45763;BME280;37512;52.408;13.356;2023-06-01T13:35:41;101055.56;;;24.65;38.90
45763;BME280;37512;52.408;13.356;2023-06-01T13:39:42;101059.03;;;25.20;37.91
45763;BME280;37512;52.408;13.356;2023-06-01T13:43:44;101060.88;;;25.93;38.32
45763;BME280;37512;52.408;13.356;2023-06-01T13:47:47;101060.69;;;24.57;39.93
45763;BME280;37512;52.408;13.356;2023-06-01T13:51:50;101061.06;;;25.07;37.71
45763;BME280;37512;52.408;13.356;2023-06-01T13:55:53;101053.00;;;25.97;37.81
45763;BME280;37512;52.408;13.356;2023-06-01T13:59:55;101045.16;;;25.57;37.16
45763;BME280;37512;52.408;13.356;2023-06-01T14:03:57;101055.81;;;23.61;39.05
45763;BME280;37512;52.408;13.356;2023-06-01T14:07:59;101048.84;;;24.72;38.89
45763;BME280;37512;52.408;13.356;2023-06-01T14:12:01;101043.25;;;24.17;39.06
45763;BME280;37512;52.408;13.356;2023-06-01T14:16:03;101040.81;;;23.90;39.20
45763;BME280;37512;52.408;13.356;2023-06-01T14:20:05;101030.28;;;25.75;36.86
45763;BME280;37512;52.408;13.356;2023-06-01T14:24:07;101021.56;;;26.23;36.25
45763;BME280;37512;52.408;13.356;2023-06-01T14:28:09;101031.91;;;26.07;35.94
45763;BME280;37512;52.408;13.356;2023-06-01T14:32:11;101022.94;;;26.99;35.18
45763;BME280;37512;52.408;13.356;2023-06-01T14:36:12;101023.97;;;24.89;37.15
45763;BME280;37512;52.408;13.356;2023-06-01T14:40:14;101010.31;;;26.19;36.22
45763;BME280;37512;52.408;13.356;2023-06-01T14:44:16;101021.59;;;26.63;36.10
45763;BME280;37512;52.408;13.356;2023-06-01T14:48:18;101017.84;;;26.85;34.62
45763;BME280;37512;52.408;13.356;2023-06-01T14:52:20;101014.56;;;26.15;35.35
45763;BME280;37512;52.408;13.356;2023-06-01T14:56:22;101010.09;;;26.45;35.05
45763;BME280;37512;52.408;13.356;2023-06-01T15:00:24;101006.09;;;26.64;34.30
45763;BME280;37512;52.408;13.356;2023-06-01T15:04:25;101017.88;;;24.65;36.48
45763;BME280;37512;52.408;13.356;2023-06-01T15:08:27;101002.03;;;26.43;35.90
45763;BME280;37512;52.408;13.356;2023-06-01T15:12:31;101007.59;;;27.06;34.93
45763;BME280;37512;52.408;13.356;2023-06-01T15:16:32;100998.38;;;26.34;35.53
45763;BME280;37512;52.408;13.356;2023-06-01T15:20:38;100996.81;;;26.91;34.91
45763;BME280;37512;52.408;13.356;2023-06-01T15:24:40;100989.28;;;26.48;34.49
45763;BME280;37512;52.408;13.356;2023-06-01T15:28:42;100986.63;;;26.22;35.45
45763;BME280;37512;52.408;13.356;2023-06-01T15:32:43;100986.50;;;26.26;34.65
45763;BME280;37512;52.408;13.356;2023-06-01T15:37:00;100990.38;;;24.74;35.72
45763;BME280;37512;52.408;13.356;2023-06-01T15:41:02;100978.13;;;25.91;35.35
45763;BME280;37512;52.408;13.356;2023-06-01T15:45:07;100982.06;;;25.72;35.07
45763;BME280;37512;52.408;13.356;2023-06-01T15:49:10;100982.88;;;24.80;35.14
45763;BME280;37512;52.408;13.356;2023-06-01T15:53:11;100974.53;;;24.38;36.58
45763;BME280;37512;52.408;13.356;2023-06-01T15:57:13;100973.44;;;25.75;35.45
45763;BME280;37512;52.408;13.356;2023-06-01T16:01:16;100975.06;;;25.19;35.64
45763;BME280;37512;52.408;13.356;2023-06-01T16:05:31;100968.50;;;25.98;35.86
45763;BME280;37512;52.408;13.356;2023-06-01T16:09:35;100967.69;;;26.69;34.50
45763;BME280;37512;52.408;13.356;2023-06-01T16:13:37;100960.34;;;26.09;35.03
45763;BME280;37512;52.408;13.356;2023-06-01T16:17:39;100965.97;;;25.69;35.70
45763;BME280;37512;52.408;13.356;2023-06-01T16:21:41;100956.19;;;26.32;34.85
45763;BME280;37512;52.408;13.356;2023-06-01T16:25:43;100966.94;;;24.48;36.93
45763;BME280;37512;52.408;13.356;2023-06-01T16:29:45;100949.78;;;24.99;36.83
45763;BME280;37512;52.408;13.356;2023-06-01T16:33:47;100954.56;;;25.91;35.27
45763;BME280;37512;52.408;13.356;2023-06-01T16:37:49;100949.13;;;26.05;34.77
45763;BME280;37512;52.408;13.356;2023-06-01T16:41:51;100956.56;;;24.67;35.54
45763;BME280;37512;52.408;13.356;2023-06-01T16:45:53;100952.97;;;24.41;37.02
45763;BME280;37512;52.408;13.356;2023-06-01T16:49:55;100933.97;;;25.33;34.98
45763;BME280;37512;52.408;13.356;2023-06-01T16:53:57;100955.13;;;24.97;36.19
45763;BME280;37512;52.408;13.356;2023-06-01T16:57:59;100951.13;;;25.08;36.17
45763;BME280;37512;52.408;13.356;2023-06-01T17:02:01;100945.03;;;23.97;36.85
45763;BME280;37512;52.408;13.356;2023-06-01T17:06:03;100951.91;;;23.71;37.76
45763;BME280;37512;52.408;13.356;2023-06-01T17:10:05;100961.22;;;23.42;38.42
45763;BME280;37512;52.408;13.356;2023-06-01T17:14:07;100949.16;;;22.80;38.64
45763;BME280;37512;52.408;13.356;2023-06-01T17:18:09;100943.53;;;23.80;38.19
45763;BME280;37512;52.408;13.356;2023-06-01T17:22:12;100940.16;;;23.98;38.06
45763;BME280;37512;52.408;13.356;2023-06-01T17:26:15;100940.16;;;23.98;37.39
45763;BME280;37512;52.408;13.356;2023-06-01T17:30:17;100942.09;;;23.88;37.58
45763;BME280;37512;52.408;13.356;2023-06-01T17:34:22;100947.53;;;23.95;39.33
45763;BME280;37512;52.408;13.356;2023-06-01T17:38:24;100950.78;;;23.39;38.86
45763;BME280;37512;52.408;13.356;2023-06-01T17:42:28;100938.22;;;22.32;40.55
45763;BME280;37512;52.408;13.356;2023-06-01T17:46:30;100941.13;;;21.76;42.06
